createdAt,value
2022-08-07T12:01:20.105Z,55.87
2022-08-07T12:04:10.190Z,57.38
2022-08-07T12:07:39.288Z,58.39
2022-08-07T12:10:18.333Z,59.08
2022-08-07T12:13:36.593Z,60.02
2022-08-07T12:16:30.156Z,59.94
2022-08-07T12:22:38.120Z,61.40
2022-08-07T12:26:06.042Z,62.77
2022-08-07T12:28:54.131Z,64.17
2022-08-07T12:31:53.316Z,62.30
2022-08-07T12:35:16.150Z,62.99
2022-08-07T12:38:09.355Z,62.61
2022-08-07T12:48:41.444Z,62.39
2022-08-07T12:51:46.592Z,62.38
2022-08-07T12:57:25.776Z,61.29
2022-08-07T13:00:50.047Z,60.75
2022-08-07T13:04:03.199Z,60.07
2022-08-07T13:06:54.242Z,59.74
2022-08-07T13:13:50.192Z,59.25
2022-08-07T13:16:36.680Z,59.09
2022-08-07T13:19:45.962Z,58.60
2022-08-07T13:22:53.325Z,58.06
2022-08-07T13:25:42.605Z,58.47
2022-08-07T13:28:57.964Z,58.63
2022-08-07T13:31:57.291Z,58.95
2022-08-07T13:36:00.309Z,59.23
2022-08-07T13:38:42.196Z,59.55
2022-08-07T13:41:23.711Z,59.46
2022-08-07T13:44:10.529Z,58.10
2022-08-07T13:46:54.315Z,59.19
2022-08-07T13:50:33.871Z,59.20
2022-08-07T13:52:54.910Z,58.77
2022-08-07T13:59:06.274Z,59.05
2022-08-07T14:02:17.044Z,59.13
2022-08-07T14:12:49.083Z,61.02
2022-08-07T14:15:44.478Z,61.22
2022-08-07T14:18:28.569Z,61.17
2022-08-07T14:24:23.011Z,61.49
2022-08-07T14:27:00.520Z,61.17
2022-08-07T14:30:11.025Z,61.15
2022-08-07T14:32:46.954Z,61.52
2022-08-07T14:38:33.613Z,61.34
2022-08-07T14:41:12.486Z,61.25
2022-08-07T14:43:58.341Z,61.27
2022-08-07T14:47:14.332Z,60.82
2022-08-07T14:50:37.691Z,60.92
2022-08-07T14:54:08.939Z,60.82
2022-08-07T15:05:55.225Z,58.23
2022-08-07T15:13:11.773Z,58.03
2022-08-07T15:15:38.633Z,58.24
2022-08-07T15:28:35.216Z,59.01
2022-08-07T15:32:01.779Z,59.36
2022-08-07T15:34:22.645Z,59.58
2022-08-07T15:37:04.068Z,58.86
2022-08-07T15:40:11.268Z,58.85
2022-08-07T15:42:56.189Z,58.65
2022-08-07T15:45:55.508Z,58.71
2022-08-07T15:48:36.514Z,58.70
2022-08-07T15:55:23.235Z,58.66
2022-08-07T15:58:23.950Z,58.71
2022-08-07T16:01:14.655Z,59.03
2022-08-07T16:03:58.456Z,59.23
2022-08-07T16:06:33.293Z,59.58
2022-08-07T16:09:09.189Z,60.15
2022-08-07T16:12:34.233Z,60.56
2022-08-07T16:15:54.619Z,60.92
2022-08-07T16:18:50.931Z,61.44
2022-08-07T16:22:01.578Z,61.70
2022-08-07T16:25:07.662Z,62.53
2022-08-07T16:27:49.463Z,63.20
2022-08-07T16:30:33.709Z,63.02
2022-08-07T16:34:02.170Z,63.15
2022-08-07T16:36:31.393Z,62.83
2022-08-07T16:40:02.333Z,62.62
2022-08-07T16:43:00.849Z,62.44
2022-08-07T16:50:26.890Z,62.09
2022-08-07T16:54:11.481Z,62.10
2022-08-07T16:58:02.282Z,61.80
2022-08-07T17:01:02.011Z,61.84
2022-08-07T17:08:09.632Z,61.79
2022-08-07T17:11:25.141Z,61.95
2022-08-07T17:14:49.564Z,62.57
2022-08-07T17:20:55.588Z,64.06
2022-08-07T17:23:46.151Z,63.82
2022-08-07T17:26:36.829Z,64.38
2022-08-07T17:30:13.889Z,65.08
2022-08-07T17:34:15.570Z,65.05
2022-08-07T17:36:31.536Z,65.23
2022-08-07T17:39:15.469Z,65.17
2022-08-07T17:42:59.168Z,65.10
2022-08-07T17:48:54.582Z,65.05
2022-08-07T17:52:00.399Z,65.75
2022-08-07T17:55:12.666Z,66.08
2022-08-07T17:57:58.440Z,65.48
2022-08-07T18:00:49.637Z,66.24
2022-08-07T18:04:06.876Z,66.29
2022-08-07T18:06:43.086Z,66.89
2022-08-07T18:13:16.258Z,68.05
2022-08-07T18:22:16.960Z,70.14
2022-08-07T18:25:39.434Z,71.04
2022-08-07T18:31:56.502Z,72.34
2022-08-07T18:35:01.395Z,73.08
2022-08-07T18:38:56.211Z,73.74
2022-08-07T18:41:21.146Z,73.72
2022-08-07T18:43:57.589Z,73.88
2022-08-07T18:46:32.605Z,73.78
2022-08-07T18:50:32.436Z,73.78
2022-08-07T18:52:55.038Z,73.94
2022-08-07T18:55:55.549Z,74.48
2022-08-07T18:58:51.314Z,75.24
2022-08-07T19:02:19.415Z,75.38
2022-08-07T19:08:06.085Z,75.31
2022-08-07T19:10:51.420Z,75.39
2022-08-07T19:13:32.151Z,75.46
2022-08-07T19:17:00.433Z,75.51
2022-08-07T19:19:03.858Z,76.31
2022-08-07T19:21:53.536Z,76.64
2022-08-07T19:24:53.994Z,76.80
2022-08-07T19:28:58.448Z,77.60
2022-08-07T19:31:05.414Z,78.24
2022-08-07T19:33:16.169Z,78.49
2022-08-07T19:35:52.173Z,78.73
2022-08-07T19:38:23.636Z,78.16
2022-08-07T19:41:04.493Z,78.51
2022-08-07T19:43:44.044Z,77.66
2022-08-07T19:46:26.431Z,77.88
2022-08-07T19:49:05.607Z,77.83
2022-08-07T19:51:52.453Z,77.73
2022-08-07T19:55:06.315Z,77.23
2022-08-07T19:57:52.193Z,77.43
2022-08-07T20:00:36.757Z,77.73
2022-08-07T20:03:33.775Z,77.90
2022-08-07T20:06:01.995Z,77.79
2022-08-07T20:08:37.574Z,77.90
2022-08-07T20:11:34.081Z,77.83
2022-08-07T20:14:20.589Z,78.40
2022-08-07T20:17:43.664Z,79.14
2022-08-07T20:20:19.886Z,79.59
2022-08-07T20:22:49.997Z,80.59
2022-08-07T20:25:20.763Z,81.34
2022-08-07T20:28:03.494Z,81.55
2022-08-07T20:30:59.908Z,82.02
2022-08-07T20:33:38.580Z,82.28
2022-08-07T20:36:17.126Z,82.86
2022-08-07T20:39:00.891Z,83.75
2022-08-07T20:41:42.254Z,83.79
2022-08-07T20:45:02.363Z,84.15
2022-08-07T20:47:56.316Z,84.45
2022-08-07T20:50:30.780Z,84.58
2022-08-07T20:53:03.474Z,84.91
2022-08-07T20:55:37.225Z,85.18
2022-08-07T20:58:19.242Z,85.45
2022-08-07T21:04:19.560Z,85.45
2022-08-07T21:06:53.656Z,85.92
2022-08-07T21:09:27.653Z,86.23
2022-08-07T21:11:59.136Z,86.37
2022-08-07T21:14:34.621Z,86.87
2022-08-07T21:18:02.877Z,86.30
2022-08-07T21:20:56.071Z,85.64
2022-08-07T21:23:33.029Z,85.12
2022-08-07T21:26:11.049Z,84.25
2022-08-07T21:28:51.305Z,84.17
2022-08-07T21:31:49.311Z,83.82
2022-08-07T21:34:48.712Z,83.77
2022-08-07T21:37:22.682Z,83.95
2022-08-07T21:43:36.644Z,86.01
2022-08-07T21:46:31.800Z,85.74
2022-08-07T21:49:14.889Z,85.38
2022-08-07T21:52:43.935Z,85.42
2022-08-07T21:55:27.822Z,85.42
2022-08-07T21:58:06.725Z,85.82
2022-08-07T22:00:40.914Z,86.13
2022-08-07T22:03:17.259Z,86.39
2022-08-07T22:06:30.909Z,86.49
2022-08-07T22:09:07.018Z,86.79
2022-08-07T22:12:05.311Z,86.31
2022-08-07T22:16:40.037Z,86.20
2022-08-07T22:18:17.971Z,85.89
2022-08-07T22:20:55.553Z,85.94
2022-08-07T22:23:31.134Z,86.01
2022-08-07T22:26:06.690Z,85.98
2022-08-07T22:28:48.220Z,86.51
2022-08-07T22:31:59.201Z,86.71
2022-08-07T22:34:28.772Z,86.30
2022-08-07T22:37:19.764Z,86.33
2022-08-07T22:40:17.118Z,86.90
2022-08-07T22:42:49.279Z,87.32
2022-08-07T22:46:40.794Z,87.40
2022-08-07T22:48:55.478Z,87.62
2022-08-07T22:51:52.000Z,87.80
2022-08-07T22:55:23.084Z,87.99
2022-08-07T22:58:03.948Z,88.11
2022-08-07T23:00:46.836Z,88.10
2022-08-07T23:03:58.591Z,88.23
2022-08-07T23:06:44.235Z,88.18
2022-08-07T23:10:05.321Z,88.42
2022-08-07T23:12:59.298Z,88.48
2022-08-07T23:16:07.317Z,88.36
2022-08-07T23:18:38.164Z,87.99
2022-08-07T23:21:29.951Z,87.11
2022-08-07T23:25:19.125Z,85.94
2022-08-07T23:28:22.341Z,85.81
2022-08-07T23:31:18.786Z,85.92
2022-08-07T23:35:23.579Z,86.21
2022-08-07T23:38:10.940Z,86.11
2022-08-07T23:40:52.515Z,86.48
2022-08-07T23:43:52.497Z,86.41
2022-08-07T23:46:58.689Z,86.42
2022-08-07T23:50:16.009Z,86.56
2022-08-07T23:53:50.910Z,86.33
2022-08-07T23:56:31.348Z,86.35
